sensor_id;sensor_type;location;lat;lon;timestamp;temperature;humidity
15574;DHT22;7888;46.748;8.102;2024-01-16T00:01:46;6.60;51.20
15574;DHT22;7888;46.748;8.102;2024-01-16T00:04:11;6.60;51.20
15574;DHT22;7888;46.748;8.102;2024-01-16T00:06:41;6.60;51.20
15574;DHT22;7888;46.748;8.102;2024-01-16T00:09:08;6.60;51.30
15574;DHT22;7888;46.748;8.102;2024-01-16T00:11:42;6.60;51.20
15574;DHT22;7888;46.748;8.102;2024-01-16T00:14:08;6.60;51.00
15574;DHT22;7888;46.748;8.102;2024-01-16T00:16:42;6.60;51.10
15574;DHT22;7888;46.748;8.102;2024-01-16T00:19:09;6.60;51.20
15574;DHT22;7888;46.748;8.102;2024-01-16T00:21:40;6.60;51.20
15574;DHT22;7888;46.748;8.102;2024-01-16T00:24:06;6.60;51.20
15574;DHT22;7888;46.748;8.102;2024-01-16T00:26:32;6.60;51.20
15574;DHT22;7888;46.748;8.102;2024-01-16T00:28:58;6.50;51.00
15574;DHT22;7888;46.748;8.102;2024-01-16T00:31:23;6.50;51.00
15574;DHT22;7888;46.748;8.102;2024-01-16T00:33:49;6.50;51.00
15574;DHT22;7888;46.748;8.102;2024-01-16T00:36:15;6.50;51.00
15574;DHT22;7888;46.748;8.102;2024-01-16T00:38:41;6.50;51.10
15574;DHT22;7888;46.748;8.102;2024-01-16T00:41:06;6.50;51.20
15574;DHT22;7888;46.748;8.102;2024-01-16T00:43:32;6.50;51.30
15574;DHT22;7888;46.748;8.102;2024-01-16T00:46:00;6.50;51.40
15574;DHT22;7888;46.748;8.102;2024-01-16T00:48:26;6.50;51.40
15574;DHT22;7888;46.748;8.102;2024-01-16T00:50:52;6.40;51.40
15574;DHT22;7888;46.748;8.102;2024-01-16T00:53:18;6.40;51.50
15574;DHT22;7888;46.748;8.102;2024-01-16T00:55:44;6.40;51.40
15574;DHT22;7888;46.748;8.102;2024-01-16T00:58:09;6.40;51.50
15574;DHT22;7888;46.748;8.102;2024-01-16T01:00:35;6.40;51.50
15574;DHT22;7888;46.748;8.102;2024-01-16T01:03:03;6.40;51.50
15574;DHT22;7888;46.748;8.102;2024-01-16T01:05:29;6.40;51.60
15574;DHT22;7888;46.748;8.102;2024-01-16T01:07:55;6.40;51.60
15574;DHT22;7888;46.748;8.102;2024-01-16T01:10:22;6.40;51.70
15574;DHT22;7888;46.748;8.102;2024-01-16T01:12:48;6.40;52.30
15574;DHT22;7888;46.748;8.102;2024-01-16T01:15:14;6.30;51.70
15574;DHT22;7888;46.748;8.102;2024-01-16T01:17:40;6.30;51.70
15574;DHT22;7888;46.748;8.102;2024-01-16T01:20:08;6.30;51.90
15574;DHT22;7888;46.748;8.102;2024-01-16T01:22:35;6.30;51.80
15574;DHT22;7888;46.748;8.102;2024-01-16T01:25:02;6.30;51.80
15574;DHT22;7888;46.748;8.102;2024-01-16T01:27:29;6.30;51.80
15574;DHT22;7888;46.748;8.102;2024-01-16T01:29:54;6.30;51.70
15574;DHT22;7888;46.748;8.102;2024-01-16T01:32:21;6.30;51.80
15574;DHT22;7888;46.748;8.102;2024-01-16T01:34:47;6.30;51.90
15574;DHT22;7888;46.748;8.102;2024-01-16T01:37:12;6.20;51.80
15574;DHT22;7888;46.748;8.102;2024-01-16T01:39:39;6.20;51.90
15574;DHT22;7888;46.748;8.102;2024-01-16T01:42:05;6.20;51.80
15574;DHT22;7888;46.748;8.102;2024-01-16T01:44:31;6.20;51.90
15574;DHT22;7888;46.748;8.102;2024-01-16T01:46:57;6.20;51.90
15574;DHT22;7888;46.748;8.102;2024-01-16T01:49:25;6.10;51.80
15574;DHT22;7888;46.748;8.102;2024-01-16T01:51:52;6.10;51.80
15574;DHT22;7888;46.748;8.102;2024-01-16T01:54:19;6.10;51.80
15574;DHT22;7888;46.748;8.102;2024-01-16T01:56:47;6.10;51.80
15574;DHT22;7888;46.748;8.102;2024-01-16T01:59:14;6.10;51.80
15574;DHT22;7888;46.748;8.102;2024-01-16T02:01:47;6.00;51.70
15574;DHT22;7888;46.748;8.102;2024-01-16T02:04:15;6.00;51.70
15574;DHT22;7888;46.748;8.102;2024-01-16T02:06:43;6.00;51.70
15574;DHT22;7888;46.748;8.102;2024-01-16T02:09:10;6.00;51.70
15574;DHT22;7888;46.748;8.102;2024-01-16T02:11:39;6.00;51.70
15574;DHT22;7888;46.748;8.102;2024-01-16T02:14:05;5.90;51.60
15574;DHT22;7888;46.748;8.102;2024-01-16T02:16:36;5.90;51.60
15574;DHT22;7888;46.748;8.102;2024-01-16T02:19:06;5.80;51.50
15574;DHT22;7888;46.748;8.102;2024-01-16T02:21:43;5.80;51.50
15574;DHT22;7888;46.748;8.102;2024-01-16T02:24:13;5.80;51.50
15574;DHT22;7888;46.748;8.102;2024-01-16T02:26:40;5.70;51.50
15574;DHT22;7888;46.748;8.102;2024-01-16T02:29:06;5.70;51.50
15574;DHT22;7888;46.748;8.102;2024-01-16T09:52:36;5.30;53.50
15574;DHT22;7888;46.748;8.102;2024-01-16T09:55:01;5.60;54.10
15574;DHT22;7888;46.748;8.102;2024-01-16T09:57:28;5.80;54.20
15574;DHT22;7888;46.748;8.102;2024-01-16T09:59:56;6.10;54.20
15574;DHT22;7888;46.748;8.102;2024-01-16T10:02:23;6.40;53.80
15574;DHT22;7888;46.748;8.102;2024-01-16T10:04:49;6.60;53.60
15574;DHT22;7888;46.748;8.102;2024-01-16T10:07:16;6.90;53.20
15574;DHT22;7888;46.748;8.102;2024-01-16T10:09:43;7.10;52.30
15574;DHT22;7888;46.748;8.102;2024-01-16T10:12:10;7.30;51.80
15574;DHT22;7888;46.748;8.102;2024-01-16T10:14:37;7.40;51.40
15574;DHT22;7888;46.748;8.102;2024-01-16T10:17:04;7.60;51.60
15574;DHT22;7888;46.748;8.102;2024-01-16T10:19:49;7.70;51.10
15574;DHT22;7888;46.748;8.102;2024-01-16T10:22:23;7.80;50.00
15574;DHT22;7888;46.748;8.102;2024-01-16T10:25:06;7.80;49.40
15574;DHT22;7888;46.748;8.102;2024-01-16T10:27:34;7.80;48.60
15574;DHT22;7888;46.748;8.102;2024-01-16T10:30:01;7.80;49.40
15574;DHT22;7888;46.748;8.102;2024-01-16T10:32:36;7.80;49.70
15574;DHT22;7888;46.748;8.102;2024-01-16T10:35:13;7.70;49.80
15574;DHT22;7888;46.748;8.102;2024-01-16T10:37:55;7.70;49.80
15574;DHT22;7888;46.748;8.102;2024-01-16T10:40:24;7.70;50.00
15574;DHT22;7888;46.748;8.102;2024-01-16T10:43:01;7.70;50.30
15574;DHT22;7888;46.748;8.102;2024-01-16T10:45:29;7.80;50.00
15574;DHT22;7888;46.748;8.102;2024-01-16T10:50:33;7.80;50.10
15574;DHT22;7888;46.748;8.102;2024-01-16T10:53:03;7.90;50.30
15574;DHT22;7888;46.748;8.102;2024-01-16T10:55:31;7.90;50.10
15574;DHT22;7888;46.748;8.102;2024-01-16T10:58:23;8.00;50.00
15574;DHT22;7888;46.748;8.102;2024-01-16T11:00:53;8.00;49.80
15574;DHT22;7888;46.748;8.102;2024-01-16T11:03:29;8.10;49.80
15574;DHT22;7888;46.748;8.102;2024-01-16T11:06:05;8.20;49.40
15574;DHT22;7888;46.748;8.102;2024-01-16T11:08:35;8.20;49.50
15574;DHT22;7888;46.748;8.102;2024-01-16T11:11:02;8.30;49.40
15574;DHT22;7888;46.748;8.102;2024-01-16T11:13:34;8.30;49.40
15574;DHT22;7888;46.748;8.102;2024-01-16T11:16:02;8.30;49.20
15574;DHT22;7888;46.748;8.102;2024-01-16T11:18:33;8.30;49.20
15574;DHT22;7888;46.748;8.102;2024-01-16T11:21:05;8.40;49.20
15574;DHT22;7888;46.748;8.102;2024-01-16T11:23:32;8.40;49.10
15574;DHT22;7888;46.748;8.102;2024-01-16T11:26:00;8.40;49.20
15574;DHT22;7888;46.748;8.102;2024-01-16T11:28:48;8.50;49.10
15574;DHT22;7888;46.748;8.102;2024-01-16T11:31:40;8.50;49.20
15574;DHT22;7888;46.748;8.102;2024-01-16T11:34:09;8.50;48.50
15574;DHT22;7888;46.748;8.102;2024-01-16T11:36:51;8.50;49.10
15574;DHT22;7888;46.748;8.102;2024-01-16T11:39:25;8.60;48.40
15574;DHT22;7888;46.748;8.102;2024-01-16T11:47:03;8.70;49.10
15574;DHT22;7888;46.748;8.102;2024-01-16T11:49:30;8.80;48.90
15574;DHT22;7888;46.748;8.102;2024-01-16T11:51:57;8.80;48.90
15574;DHT22;7888;46.748;8.102;2024-01-16T11:54:24;8.90;48.80
15574;DHT22;7888;46.748;8.102;2024-01-16T12:00:03;8.90;48.60
15574;DHT22;7888;46.748;8.102;2024-01-16T12:21:44;9.40;46.80
15574;DHT22;7888;46.748;8.102;2024-01-16T12:24:11;9.70;47.00
15574;DHT22;7888;46.748;8.102;2024-01-16T12:26:37;9.80;47.60
15574;DHT22;7888;46.748;8.102;2024-01-16T12:29:04;9.90;46.70
15574;DHT22;7888;46.748;8.102;2024-01-16T12:31:31;9.90;46.50
15574;DHT22;7888;46.748;8.102;2024-01-16T12:34:07;9.90;46.40
15574;DHT22;7888;46.748;8.102;2024-01-16T12:36:33;9.80;45.70
15574;DHT22;7888;46.748;8.102;2024-01-16T12:38:59;9.80;46.10
15574;DHT22;7888;46.748;8.102;2024-01-16T12:41:28;9.80;46.10
15574;DHT22;7888;46.748;8.102;2024-01-16T12:44:00;9.70;45.80
15574;DHT22;7888;46.748;8.102;2024-01-16T12:46:26;9.60;46.20
15574;DHT22;7888;46.748;8.102;2024-01-16T12:48:51;9.60;46.30
15574;DHT22;7888;46.748;8.102;2024-01-16T12:51:20;9.40;46.30
15574;DHT22;7888;46.748;8.102;2024-01-16T12:53:50;9.40;46.50
15574;DHT22;7888;46.748;8.102;2024-01-16T12:56:19;9.30;46.60
15574;DHT22;7888;46.748;8.102;2024-01-16T12:58:46;9.30;46.50
15574;DHT22;7888;46.748;8.102;2024-01-16T13:03:50;9.20;46.70
15574;DHT22;7888;46.748;8.102;2024-01-16T13:06:20;9.30;47.10
15574;DHT22;7888;46.748;8.102;2024-01-16T13:08:48;9.20;46.90
15574;DHT22;7888;46.748;8.102;2024-01-16T13:11:14;9.20;47.20
15574;DHT22;7888;46.748;8.102;2024-01-16T13:13:47;9.20;47.20
15574;DHT22;7888;46.748;8.102;2024-01-16T13:16:14;9.20;47.10
15574;DHT22;7888;46.748;8.102;2024-01-16T13:18:41;9.20;46.90
15574;DHT22;7888;46.748;8.102;2024-01-16T13:21:08;9.10;46.90
15574;DHT22;7888;46.748;8.102;2024-01-16T13:23:35;9.10;47.00
15574;DHT22;7888;46.748;8.102;2024-01-16T13:26:01;9.10;47.10
15574;DHT22;7888;46.748;8.102;2024-01-16T13:28:30;9.00;47.30
15574;DHT22;7888;46.748;8.102;2024-01-16T13:30:56;8.90;47.40
15574;DHT22;7888;46.748;8.102;2024-01-16T13:33:23;8.90;47.50
15574;DHT22;7888;46.748;8.102;2024-01-16T13:35:53;8.90;47.60
15574;DHT22;7888;46.748;8.102;2024-01-16T13:38:20;8.90;47.50
15574;DHT22;7888;46.748;8.102;2024-01-16T13:40:47;8.90;47.40
15574;DHT22;7888;46.748;8.102;2024-01-16T13:43:13;8.90;47.60
15574;DHT22;7888;46.748;8.102;2024-01-16T13:45:39;8.80;47.60
15574;DHT22;7888;46.748;8.102;2024-01-16T13:48:07;8.80;47.60
15574;DHT22;7888;46.748;8.102;2024-01-16T13:50:33;8.70;47.50
15574;DHT22;7888;46.748;8.102;2024-01-16T13:53:00;8.70;47.30
15574;DHT22;7888;46.748;8.102;2024-01-16T13:55:29;8.70;47.30
15574;DHT22;7888;46.748;8.102;2024-01-16T13:57:57;8.60;47.40
15574;DHT22;7888;46.748;8.102;2024-01-16T14:00:23;8.60;47.40
15574;DHT22;7888;46.748;8.102;2024-01-16T14:02:49;8.50;47.50
15574;DHT22;7888;46.748;8.102;2024-01-16T14:05:18;8.50;47.40
15574;DHT22;7888;46.748;8.102;2024-01-16T14:07:45;8.50;47.40
15574;DHT22;7888;46.748;8.102;2024-01-16T14:10:22;8.50;47.60
15574;DHT22;7888;46.748;8.102;2024-01-16T14:12:50;8.40;47.40
15574;DHT22;7888;46.748;8.102;2024-01-16T14:15:18;8.40;47.50
15574;DHT22;7888;46.748;8.102;2024-01-16T14:17:47;8.30;47.50
15574;DHT22;7888;46.748;8.102;2024-01-16T14:20:16;8.30;47.70
15574;DHT22;7888;46.748;8.102;2024-01-16T14:22:43;8.30;47.90
15574;DHT22;7888;46.748;8.102;2024-01-16T14:25:10;8.30;48.60
15574;DHT22;7888;46.748;8.102;2024-01-16T14:27:44;8.30;48.00
15574;DHT22;7888;46.748;8.102;2024-01-16T14:30:12;8.30;47.60
15574;DHT22;7888;46.748;8.102;2024-01-16T14:32:41;8.20;47.60
15574;DHT22;7888;46.748;8.102;2024-01-16T14:35:11;8.20;47.50
15574;DHT22;7888;46.748;8.102;2024-01-16T14:37:39;8.20;48.10
15574;DHT22;7888;46.748;8.102;2024-01-16T14:40:06;8.20;47.50
15574;DHT22;7888;46.748;8.102;2024-01-16T14:42:46;8.20;47.40
15574;DHT22;7888;46.748;8.102;2024-01-16T14:45:27;8.20;47.30
15574;DHT22;7888;46.748;8.102;2024-01-16T14:47:53;8.10;47.20
15574;DHT22;7888;46.748;8.102;2024-01-16T14:50:20;8.10;47.40
15574;DHT22;7888;46.748;8.102;2024-01-16T14:52:48;8.00;47.50
15574;DHT22;7888;46.748;8.102;2024-01-16T14:55:14;8.00;47.50
15574;DHT22;7888;46.748;8.102;2024-01-16T14:57:40;8.00;47.60
15574;DHT22;7888;46.748;8.102;2024-01-16T15:00:17;8.00;47.60
15574;DHT22;7888;46.748;8.102;2024-01-16T15:02:51;8.00;47.70
15574;DHT22;7888;46.748;8.102;2024-01-16T15:05:20;8.00;47.80
15574;DHT22;7888;46.748;8.102;2024-01-16T15:07:47;8.00;47.90
15574;DHT22;7888;46.748;8.102;2024-01-16T15:10:14;8.00;47.90
15574;DHT22;7888;46.748;8.102;2024-01-16T15:12:46;8.00;47.80
15574;DHT22;7888;46.748;8.102;2024-01-16T15:15:14;8.00;48.20
15574;DHT22;7888;46.748;8.102;2024-01-16T23:58:21;6.00;50.20
